createdAt,value
2018-02-22T00:00:00.653Z,4.9
2018-02-22T00:01:03.163Z,4.8
2018-02-22T00:02:05.581Z,4.6
2018-02-22T00:03:08.029Z,4.8
2018-02-22T00:04:10.445Z,4.9
2018-02-22T00:05:12.833Z,4.8
2018-02-22T00:06:15.197Z,5.1
2018-02-22T00:07:18.232Z,5.2
2018-02-22T00:08:20.678Z,4.5
2018-02-22T00:09:23.101Z,4.7
2018-02-22T00:10:25.552Z,4.7
2018-02-22T00:11:27.986Z,4.8
2018-02-22T00:12:30.432Z,5.2
2018-02-22T00:13:32.830Z,5
2018-02-22T00:14:35.268Z,5.3
2018-02-22T00:15:37.688Z,5
2018-02-22T00:16:40.107Z,4.8
2018-02-22T00:17:43.181Z,4.9
2018-02-22T00:18:45.614Z,4.8
2018-02-22T00:19:48.027Z,4.4
2018-02-22T00:20:50.436Z,4.5
2018-02-22T00:21:52.885Z,4.7
2018-02-22T00:22:55.316Z,4.8
2018-02-22T00:23:57.733Z,5
2018-02-22T00:25:00.131Z,5.2
2018-02-22T00:26:02.573Z,5
2018-02-22T00:27:05.001Z,4.7
2018-02-22T00:28:09.495Z,4.3
2018-02-22T00:29:12.446Z,4.4
2018-02-22T00:30:14.875Z,4.2
2018-02-22T00:31:17.333Z,4.2
2018-02-22T00:32:19.737Z,4.1
2018-02-22T00:33:22.161Z,3.9
2018-02-22T00:34:24.551Z,4
2018-02-22T00:35:27.006Z,3.8
2018-02-22T00:36:29.522Z,3.8
2018-02-22T00:37:31.941Z,3.8
2018-02-22T00:38:34.348Z,3.9
2018-02-22T00:39:36.724Z,3.5
2018-02-22T00:40:39.676Z,3.9
2018-02-22T00:41:42.057Z,3.5
2018-02-22T00:42:44.750Z,3.5
2018-02-22T00:43:47.179Z,3.6
2018-02-22T00:44:49.662Z,3.5
2018-02-22T00:45:52.050Z,3.2
2018-02-22T00:46:54.416Z,3.7
2018-02-22T00:47:56.806Z,4.4
2018-02-22T00:48:59.198Z,4.1
2018-02-22T00:50:01.622Z,3.8
2018-02-22T00:51:04.144Z,3.8
2018-02-22T00:52:06.527Z,3.7
2018-02-22T00:53:08.945Z,3.5
2018-02-22T00:54:11.420Z,3.5
2018-02-22T00:55:13.835Z,3.5
2018-02-22T00:56:16.298Z,4
2018-02-22T00:57:18.746Z,3.7
2018-02-22T00:58:21.174Z,4.1
2018-02-22T00:59:24.299Z,3.4
2018-02-22T01:00:26.685Z,3.8
2018-02-22T01:01:29.135Z,3.5
2018-02-22T01:02:31.530Z,3.6
2018-02-22T01:03:34.836Z,3.3
2018-02-22T01:04:37.210Z,3.5
2018-02-22T01:05:39.619Z,3.9
2018-02-22T01:06:41.994Z,3.9
2018-02-22T01:07:44.405Z,3.8
2018-02-22T01:08:46.814Z,3.7
2018-02-22T01:09:49.206Z,3.7
2018-02-22T01:10:51.613Z,3.5
2018-02-22T01:11:54.043Z,3.5
2018-02-22T01:12:56.434Z,3.5
2018-02-22T01:13:58.848Z,3.5
2018-02-22T01:15:01.323Z,3.6
2018-02-22T01:16:03.755Z,3.6
2018-02-22T01:17:06.166Z,3.7
2018-02-22T01:18:08.575Z,3.7
2018-02-22T01:19:10.988Z,3.4
2018-02-22T01:20:13.515Z,3.4
2018-02-22T01:21:15.967Z,3.2
2018-02-22T01:22:18.390Z,3.5
2018-02-22T01:23:20.775Z,3.4
2018-02-22T01:24:23.191Z,3.3
2018-02-22T01:25:25.634Z,3.3
2018-02-22T01:26:28.073Z,3.2
2018-02-22T01:27:31.062Z,3.2
2018-02-22T01:28:33.488Z,3.3
2018-02-22T01:29:35.893Z,3.6
2018-02-22T01:30:38.354Z,3.1
2018-02-22T01:31:40.741Z,3.6
2018-02-22T01:32:43.182Z,3.4
2018-02-22T01:33:45.658Z,3
2018-02-22T01:34:48.143Z,3
2018-02-22T01:35:50.579Z,3.4
2018-02-22T01:36:52.973Z,3.1
2018-02-22T01:37:55.431Z,3.2
2018-02-22T01:38:57.783Z,3.1
2018-02-22T01:40:00.264Z,2.8
2018-02-22T01:41:02.704Z,2.9
2018-02-22T01:42:05.169Z,2.3
2018-02-22T01:43:07.611Z,2.5
2018-02-22T01:44:11.990Z,2.6
2018-02-22T01:45:14.960Z,2.6
2018-02-22T01:46:17.307Z,2.6
2018-02-22T01:47:19.723Z,2.7
2018-02-22T01:48:22.111Z,2.7
2018-02-22T01:49:24.559Z,2.8
2018-02-22T01:50:26.956Z,2.8
2018-02-22T01:51:29.345Z,2.8
2018-02-22T01:52:31.785Z,2.7
2018-02-22T01:53:34.248Z,2.5
2018-02-22T01:54:36.627Z,2.5
2018-02-22T01:55:39.076Z,2.6
2018-02-22T01:56:41.472Z,2.7
2018-02-22T01:57:43.885Z,2.6
2018-02-22T01:58:46.317Z,2.8
2018-02-22T01:59:48.840Z,2.6
2018-02-22T02:00:51.965Z,2.8
2018-02-22T02:01:54.395Z,2.6
2018-02-22T02:02:56.812Z,2.8
2018-02-22T02:03:59.178Z,2.6
2018-02-22T02:05:01.566Z,2.5
2018-02-22T02:06:04.089Z,2.6
2018-02-22T02:07:06.486Z,2.6
2018-02-22T02:08:08.907Z,2.4
2018-02-22T02:09:11.267Z,2.5
2018-02-22T02:10:13.669Z,2.8
2018-02-22T02:11:16.068Z,2.7
2018-02-22T02:12:18.455Z,2.6
2018-02-22T02:13:20.865Z,2.5
2018-02-22T02:14:23.303Z,2.5
2018-02-22T02:15:25.747Z,2.9
2018-02-22T02:16:28.329Z,2.7
2018-02-22T02:17:30.730Z,2.4
2018-02-22T02:18:33.160Z,2.5
2018-02-22T02:19:35.555Z,2.5
2018-02-22T02:20:38.568Z,2.6
2018-02-22T02:21:41.016Z,2.9
2018-02-22T02:22:43.484Z,2.5
2018-02-22T02:23:45.947Z,2.5
2018-02-22T02:24:48.316Z,2.4
2018-02-22T02:25:50.703Z,2.1
2018-02-22T02:26:53.105Z,2.1
2018-02-22T02:27:55.599Z,2.3
2018-02-22T02:28:58.010Z,2.5
2018-02-22T02:30:00.520Z,2.8
2018-02-22T02:31:02.992Z,2.5
2018-02-22T02:32:05.501Z,2.2
2018-02-22T02:33:07.917Z,2.3
2018-02-22T02:34:10.329Z,2.2
2018-02-22T02:35:12.742Z,2.2
2018-02-22T02:36:15.124Z,2.4
2018-02-22T02:37:17.545Z,2.2
2018-02-22T02:38:20.047Z,2.2
2018-02-22T02:39:22.450Z,2.2
2018-02-22T02:40:24.864Z,2.6
2018-02-22T02:41:27.283Z,2.3
2018-02-22T02:42:29.718Z,2.6
2018-02-22T02:43:32.163Z,2.6
2018-02-22T02:44:34.688Z,2.5
2018-02-22T02:45:37.094Z,2.3
2018-02-22T02:46:39.525Z,2.2
2018-02-22T02:47:42.226Z,2.2
2018-02-22T02:48:44.669Z,2.1
2018-02-22T02:49:47.046Z,2.2
2018-02-22T02:50:49.417Z,2.4
2018-02-22T02:51:51.815Z,2.2
2018-02-22T02:52:54.249Z,1.9
2018-02-22T02:53:56.707Z,1.8
2018-02-22T02:54:59.096Z,2
2018-02-22T02:56:01.544Z,2
2018-02-22T02:57:03.999Z,2
2018-02-22T02:58:07.686Z,2
2018-02-22T02:59:10.185Z,2.2
2018-02-22T03:00:12.554Z,2.1
2018-02-22T03:01:14.999Z,2.2
2018-02-22T03:02:17.460Z,2.4
2018-02-22T03:03:19.911Z,2.5
2018-02-22T03:04:22.287Z,2.4
2018-02-22T03:05:24.678Z,2.6
2018-02-22T03:06:27.118Z,2.6
2018-02-22T03:07:29.472Z,2.6
2018-02-22T03:08:31.899Z,2.5
2018-02-22T03:09:34.261Z,2.6
2018-02-22T03:10:36.724Z,2.4
2018-02-22T03:11:39.134Z,2.3
2018-02-22T03:12:41.520Z,2.2
2018-02-22T03:13:43.947Z,2.1
2018-02-22T03:14:46.434Z,1.8
2018-02-22T03:15:48.871Z,1.9
2018-02-22T03:16:51.244Z,1.8
2018-02-22T03:17:53.670Z,1.4
2018-02-22T03:18:56.331Z,1.8
2018-02-22T03:19:58.733Z,1.6
2018-02-22T03:21:01.139Z,1.9
2018-02-22T03:22:03.551Z,1.7
2018-02-22T03:23:05.973Z,1.6
2018-02-22T03:24:08.358Z,1.5
2018-02-22T03:25:10.718Z,1.5
2018-02-22T03:26:13.082Z,1.5
2018-02-22T03:27:15.500Z,1.5
2018-02-22T03:28:17.923Z,1.5
2018-02-22T03:29:20.343Z,1.4
2018-02-22T03:30:22.766Z,1.4
2018-02-22T03:31:25.208Z,1.6
2018-02-22T03:32:27.635Z,1.6
2018-02-22T03:33:30.071Z,1.8
2018-02-22T03:34:32.482Z,1.8
2018-02-22T03:35:34.876Z,1.9
2018-02-22T03:36:37.298Z,1.8
2018-02-22T03:37:39.675Z,2.1
2018-02-22T03:38:42.079Z,1.9
2018-02-22T03:39:44.502Z,1.7
2018-02-22T03:40:46.892Z,1.6
2018-02-22T03:41:49.252Z,1.8
2018-02-22T03:42:51.666Z,1.8
2018-02-22T03:43:54.092Z,2.1
2018-02-22T03:44:56.511Z,1.7
2018-02-22T03:45:58.896Z,2
2018-02-22T03:47:01.454Z,1.6
2018-02-22T03:48:03.843Z,1.7
2018-02-22T03:49:06.233Z,1.7
2018-02-22T03:50:09.357Z,1.9
2018-02-22T03:51:11.756Z,1.8
2018-02-22T03:52:14.162Z,2
2018-02-22T03:53:16.639Z,2.1
2018-02-22T03:54:19.073Z,2.1
2018-02-22T03:55:21.476Z,2.1
2018-02-22T03:56:23.839Z,2
2018-02-22T03:57:26.277Z,1.9
2018-02-22T03:58:28.659Z,1.9
2018-02-22T03:59:31.064Z,1.7
2018-02-22T04:00:33.508Z,1.9
2018-02-22T04:01:35.931Z,1.7
2018-02-22T04:02:43.595Z,1.8
2018-02-22T04:03:46.112Z,1.8
2018-02-22T04:04:48.503Z,1.9
2018-02-22T04:05:50.921Z,1.7
2018-02-22T04:06:53.302Z,1.7
2018-02-22T04:07:55.689Z,1.7
2018-02-22T04:08:58.108Z,1.9
2018-02-22T04:10:00.595Z,2
2018-02-22T04:11:03.036Z,1.9
2018-02-22T04:12:05.444Z,1.8
2018-02-22T04:13:07.820Z,1.7
2018-02-22T04:14:10.207Z,1.7
2018-02-22T04:15:12.645Z,1.9
2018-02-22T04:16:15.072Z,1.8
2018-02-22T04:17:17.479Z,1.7
2018-02-22T04:18:19.880Z,1.7
2018-02-22T04:19:22.255Z,1.5
2018-02-22T04:20:24.675Z,1.6
2018-02-22T04:21:27.146Z,1.6
2018-02-22T04:22:29.539Z,1.8
2018-02-22T04:23:31.932Z,2.1
2018-02-22T04:24:34.412Z,2.1
2018-02-22T04:25:36.804Z,2.2
2018-02-22T04:26:39.163Z,2.2
2018-02-22T04:27:41.550Z,1.9
2018-02-22T04:28:43.927Z,2.1
2018-02-22T04:29:46.357Z,2.1
2018-02-22T04:30:48.764Z,2
2018-02-22T04:31:51.250Z,1.8
2018-02-22T04:32:53.660Z,1.7
2018-02-22T04:33:56.081Z,1.5
2018-02-22T04:34:58.518Z,1.5
2018-02-22T04:36:00.960Z,1.5
2018-02-22T04:37:03.405Z,1.7
2018-02-22T04:38:05.793Z,1.6
2018-02-22T04:39:08.180Z,1.6
2018-02-22T04:40:11.285Z,1.7
2018-02-22T04:41:13.647Z,1.5
2018-02-22T04:42:16.161Z,1.3
2018-02-22T04:43:18.582Z,1.3
2018-02-22T04:44:20.952Z,1.4
2018-02-22T04:45:23.382Z,1.5
2018-02-22T04:46:25.781Z,1.5
2018-02-22T04:47:28.170Z,1.5
2018-02-22T04:48:30.572Z,1.4
2018-02-22T04:49:33.022Z,1.3
2018-02-22T04:50:36.281Z,1.6
2018-02-22T04:51:38.673Z,1.3
2018-02-22T04:52:41.114Z,1.4
2018-02-22T04:53:43.493Z,1.5
2018-02-22T04:54:45.929Z,1.3
2018-02-22T04:55:48.382Z,1.4
2018-02-22T04:56:50.805Z,1.1
2018-02-22T04:57:53.197Z,1.3
2018-02-22T04:58:55.652Z,1.1
2018-02-22T04:59:58.143Z,1.2
2018-02-22T05:01:00.590Z,1.2
2018-02-22T05:02:02.985Z,1.1
2018-02-22T05:03:06.012Z,1.3
2018-02-22T05:04:08.431Z,1.1
2018-02-22T05:05:10.908Z,1
2018-02-22T05:06:13.380Z,1.1
2018-02-22T05:07:16.074Z,1.4
2018-02-22T05:08:18.529Z,1.4
2018-02-22T05:09:21.001Z,1.2
2018-02-22T05:10:23.456Z,1
2018-02-22T05:11:25.885Z,0.8
2018-02-22T05:12:28.308Z,1
2018-02-22T05:13:31.462Z,0.2
2018-02-22T05:14:33.849Z,0.8
2018-02-22T05:15:37.291Z,0.8
2018-02-22T05:16:39.687Z,0.7
2018-02-22T05:17:42.136Z,0.7
2018-02-22T05:18:44.599Z,0.5
2018-02-22T05:19:47.016Z,0.6
2018-02-22T05:20:49.377Z,0.5
2018-02-22T05:21:51.824Z,0.6
2018-02-22T05:22:54.203Z,0.4
2018-02-22T05:23:56.740Z,0.4
2018-02-22T05:24:59.114Z,0.5
2018-02-22T05:26:01.547Z,0.7
2018-02-22T05:27:03.976Z,0.6
2018-02-22T05:28:08.542Z,0.4
2018-02-22T05:29:11.662Z,0.3
2018-02-22T05:30:14.114Z,0.6
2018-02-22T05:31:16.555Z,0.8
2018-02-22T05:32:19.020Z,1
2018-02-22T05:33:21.384Z,0.7
2018-02-22T05:34:23.791Z,0.5
2018-02-22T05:35:26.260Z,0.7
2018-02-22T05:36:28.646Z,0.9
2018-02-22T05:37:31.073Z,1.3
2018-02-22T05:38:33.537Z,1.5
2018-02-22T05:39:36.123Z,1.5
2018-02-22T05:40:38.488Z,1.3
2018-02-22T05:41:40.967Z,1
2018-02-22T05:42:43.383Z,1
2018-02-22T05:43:45.771Z,0.7
2018-02-22T05:44:48.185Z,1.1
2018-02-22T05:45:50.654Z,1
2018-02-22T05:46:53.072Z,0.9
2018-02-22T05:47:55.468Z,1.1
2018-02-22T05:48:57.877Z,0.9
2018-02-22T05:50:00.280Z,0.6
2018-02-22T05:51:02.722Z,0.8
2018-02-22T05:52:05.129Z,0.9
2018-02-22T05:53:13.330Z,1.1
2018-02-22T05:54:15.757Z,1.3
2018-02-22T05:55:18.302Z,1
2018-02-22T05:56:20.690Z,1.2
2018-02-22T05:57:23.090Z,1.3
2018-02-22T05:58:25.570Z,1.4
2018-02-22T05:59:28.371Z,1.2
2018-02-22T06:00:30.845Z,1.5
2018-02-22T06:01:33.260Z,1.3
2018-02-22T06:02:35.696Z,1.6
2018-02-22T06:03:40.895Z,1.4
2018-02-22T06:04:43.337Z,1.4
2018-02-22T06:05:45.877Z,1.5
2018-02-22T06:06:48.391Z,1.5
2018-02-22T06:07:50.890Z,1.1
2018-02-22T06:08:53.357Z,1.2
2018-02-22T06:09:55.814Z,1.1
2018-02-22T06:10:58.393Z,1.3
2018-02-22T06:12:00.835Z,1.6
2018-02-22T06:13:03.301Z,1.6
2018-02-22T06:14:05.714Z,1.4
2018-02-22T06:15:08.233Z,1.3
2018-02-22T06:16:11.233Z,1.5
2018-02-22T06:18:22.191Z,1.3
2018-02-22T06:19:24.729Z,1.1
2018-02-22T06:20:29.242Z,1
2018-02-22T06:21:31.866Z,0.8
2018-02-22T06:22:34.291Z,0.9
2018-02-22T06:23:41.649Z,0.9
2018-02-22T06:24:44.135Z,0.8
2018-02-22T06:25:46.544Z,1
2018-02-22T06:26:48.994Z,0.7
2018-02-22T06:27:51.388Z,0.5
2018-02-22T06:28:53.794Z,0.3
2018-02-22T06:29:56.269Z,0.6
2018-02-22T06:30:58.798Z,0.5
2018-02-22T06:32:01.266Z,0.4
2018-02-22T06:33:03.721Z,0.3
2018-02-22T06:34:06.183Z,0.6
2018-02-22T06:35:08.706Z,0.7
2018-02-22T06:36:11.117Z,0.7
2018-02-22T06:37:13.997Z,0.6
2018-02-22T06:38:16.463Z,0.7
2018-02-22T06:39:18.919Z,0.6
2018-02-22T06:40:21.410Z,0.8
2018-02-22T06:41:23.798Z,0.8
2018-02-22T06:42:26.305Z,1.1
2018-02-22T06:43:28.755Z,0.6
2018-02-22T06:44:31.193Z,0.8
2018-02-22T06:45:33.747Z,0.6
2018-02-22T06:46:36.211Z,0.5
2018-02-22T06:47:38.714Z,0.5
2018-02-22T06:48:41.132Z,0.5
2018-02-22T06:49:43.627Z,0.3
2018-02-22T06:50:46.018Z,0.3
2018-02-22T06:51:48.492Z,0.4
2018-02-22T06:52:50.924Z,1
2018-02-22T06:53:53.373Z,1.4
2018-02-22T06:54:55.893Z,1.2
2018-02-22T06:55:58.467Z,1.5
2018-02-22T06:57:01.241Z,1.9
2018-02-22T06:58:03.961Z,2
2018-02-22T06:59:06.465Z,2
2018-02-22T07:00:09.057Z,1.9
2018-02-22T07:01:12.126Z,2.4
2018-02-22T07:02:14.608Z,3.4
2018-02-22T07:03:17.048Z,4.6
2018-02-22T07:04:19.504Z,5.5
2018-02-22T07:05:21.958Z,6.2
2018-02-22T07:06:24.444Z,6.4
2018-02-22T07:07:26.826Z,6.6
2018-02-22T07:08:30.005Z,7.1
2018-02-22T07:09:32.464Z,7.4
2018-02-22T07:10:34.927Z,7.6
2018-02-22T07:11:37.390Z,7.5
2018-02-22T07:12:39.912Z,7.7
2018-02-22T07:13:43.224Z,7.8
2018-02-22T07:14:45.652Z,7.7
2018-02-22T07:15:48.329Z,7.9
2018-02-22T07:16:50.759Z,7.7
2018-02-22T07:17:53.242Z,7.9
2018-02-22T07:18:55.629Z,8.1
2018-02-22T07:19:58.204Z,8.2
2018-02-22T07:21:00.663Z,8.4
2018-02-22T07:22:03.867Z,8.4
2018-02-22T07:23:16.650Z,8.5
2018-02-22T07:24:12.048Z,8.5
2018-02-22T07:25:14.587Z,8.5
2018-02-22T07:26:17.011Z,8.6
2018-02-22T07:27:19.557Z,8.9
2018-02-22T07:28:22.082Z,9.1
2018-02-22T07:29:29.151Z,9.3
2018-02-22T07:30:34.437Z,9.2
2018-02-22T07:31:37.975Z,9.3
2018-02-22T07:32:40.428Z,9.4
2018-02-22T07:33:42.835Z,9.6
2018-02-22T07:34:45.343Z,9.5
2018-02-22T07:35:47.853Z,9.8
2018-02-22T07:36:50.325Z,10
2018-02-22T07:37:52.806Z,10.2
2018-02-22T07:38:55.314Z,10.1
2018-02-22T07:39:57.908Z,10.4
2018-02-22T07:41:00.445Z,10.4
2018-02-22T07:42:03.096Z,10.6
2018-02-22T07:43:05.556Z,10.8
2018-02-22T07:44:08.047Z,11
2018-02-22T07:45:10.652Z,11.3
2018-02-22T07:46:13.231Z,11.6
2018-02-22T07:47:15.799Z,11.7
2018-02-22T07:48:18.648Z,11.9
2018-02-22T07:49:21.520Z,12
2018-02-22T07:50:24.292Z,12.3
2018-02-22T07:51:26.884Z,12.4
2018-02-22T07:52:29.493Z,12.7
2018-02-22T07:53:32.047Z,12.9
2018-02-22T07:54:35.355Z,12.8
2018-02-22T07:55:42.246Z,12.7
2018-02-22T07:56:44.926Z,13.2
2018-02-22T07:57:47.515Z,13.4
2018-02-22T07:58:50.326Z,13.6
2018-02-22T07:59:52.868Z,13.6
2018-02-22T08:00:55.558Z,13.9
2018-02-22T08:01:58.274Z,14.1
2018-02-22T08:03:01.420Z,14.2
2018-02-22T08:04:04.110Z,14.2
2018-02-22T08:05:07.684Z,14.3
2018-02-22T08:06:11.035Z,14.6
2018-02-22T08:07:13.873Z,14.6
2018-02-22T08:08:16.742Z,14.7
2018-02-22T08:09:19.424Z,14.7
2018-02-22T08:10:22.279Z,14.8
2018-02-22T08:11:25.092Z,14.9
2018-02-22T08:12:27.591Z,14.9
2018-02-22T08:13:30.282Z,15.2
2018-02-22T08:14:32.815Z,15.2
2018-02-22T08:15:35.344Z,15.1
2018-02-22T08:16:37.905Z,15.3
2018-02-22T08:17:40.448Z,15.5
2018-02-22T08:18:43.055Z,15.5
2018-02-22T08:19:45.556Z,15.4
2018-02-22T08:20:48.120Z,15.5
2018-02-22T08:21:50.903Z,15.6
2018-02-22T08:22:53.381Z,15.6
2018-02-22T08:23:55.912Z,15.8
2018-02-22T08:24:58.546Z,15.7
2018-02-22T08:26:01.119Z,15.9
2018-02-22T08:27:03.735Z,16
2018-02-22T08:28:07.769Z,15.9
2018-02-22T08:29:11.909Z,15.9
2018-02-22T08:30:14.378Z,16.1
2018-02-22T08:31:16.860Z,16.2
2018-02-22T08:32:19.428Z,16.2
2018-02-22T08:33:21.922Z,16.2
2018-02-22T08:34:24.415Z,16.2
2018-02-22T08:35:27.042Z,16.2
2018-02-22T08:36:31.699Z,16.2
2018-02-22T08:37:34.789Z,16.2
2018-02-22T08:38:41.460Z,16.2
2018-02-22T08:39:44.045Z,16
2018-02-22T08:40:46.633Z,15.8
2018-02-22T08:41:49.149Z,16
2018-02-22T08:42:51.635Z,15.8
2018-02-22T08:43:54.124Z,15.9
2018-02-22T08:44:56.638Z,15.9
2018-02-22T08:45:59.173Z,16
2018-02-22T08:47:01.830Z,16
2018-02-22T08:48:04.378Z,16
2018-02-22T08:49:06.881Z,15.8
2018-02-22T08:50:09.378Z,15.8
2018-02-22T08:51:11.918Z,15.8
2018-02-22T08:52:14.890Z,15.8
2018-02-22T08:53:17.352Z,15.9
2018-02-22T08:54:19.964Z,15.8
2018-02-22T08:55:22.393Z,15.9
2018-02-22T08:56:24.848Z,15.8
2018-02-22T08:57:27.428Z,15.7
2018-02-22T08:58:29.965Z,15.6
2018-02-22T08:59:32.523Z,15.8
2018-02-22T09:00:35.020Z,15.7
2018-02-22T09:01:37.592Z,15.6
2018-02-22T09:02:40.096Z,15.6
2018-02-22T09:03:42.511Z,15.6
2018-02-22T09:04:44.979Z,15.6
2018-02-22T09:05:47.528Z,15.5
2018-02-22T09:06:50.150Z,15.6
2018-02-22T09:07:52.632Z,15.7
2018-02-22T09:08:55.169Z,15.6
2018-02-22T09:09:57.649Z,15.7
2018-02-22T09:11:00.632Z,15.6
2018-02-22T09:12:03.315Z,15.7
2018-02-22T09:13:05.817Z,15.8
2018-02-22T09:14:08.334Z,15.8
2018-02-22T09:15:10.836Z,15.9
2018-02-22T09:16:13.321Z,15.8
2018-02-22T09:17:16.131Z,15.7
2018-02-22T09:18:18.644Z,15.9
2018-02-22T09:19:21.345Z,15.9
2018-02-22T09:20:23.907Z,15.9
2018-02-22T09:21:26.592Z,15.8
2018-02-22T09:22:29.352Z,15.8
2018-02-22T09:23:37.343Z,15.9
2018-02-22T09:24:40.586Z,15.9
2018-02-22T09:25:43.035Z,15.9
2018-02-22T09:26:45.892Z,15.8
2018-02-22T09:27:49.025Z,15.9
2018-02-22T09:28:51.502Z,15.9
2018-02-22T09:29:54.009Z,16
2018-02-22T09:30:56.574Z,15.9
2018-02-22T09:31:59.320Z,15.9
2018-02-22T09:33:02.027Z,15.9
2018-02-22T09:34:05.322Z,15.9
2018-02-22T09:35:08.036Z,15.9
2018-02-22T09:36:10.777Z,15.8
2018-02-22T09:37:13.507Z,15.8
2018-02-22T09:38:16.071Z,15.9
2018-02-22T09:39:18.580Z,15.8
2018-02-22T09:40:21.089Z,15.9
2018-02-22T09:41:23.642Z,16
2018-02-22T09:42:26.142Z,15.9
2018-02-22T09:43:28.648Z,15.9
2018-02-22T09:44:31.107Z,15.8
2018-02-22T09:45:33.711Z,15.9
2018-02-22T09:46:36.235Z,15.8
2018-02-22T09:47:38.776Z,15.9
2018-02-22T09:48:41.543Z,15.8
2018-02-22T09:49:44.065Z,15.8
2018-02-22T09:50:47.270Z,15.7
2018-02-22T09:51:49.948Z,16.1
2018-02-22T09:52:52.516Z,16
2018-02-22T09:53:55.255Z,16
2018-02-22T09:54:57.793Z,16.1
2018-02-22T09:56:00.392Z,16
2018-02-22T09:57:05.866Z,15.9
2018-02-22T09:58:08.504Z,15.9
2018-02-22T09:59:11.059Z,15.9
2018-02-22T10:00:13.564Z,15.9
2018-02-22T10:01:16.066Z,15.9
2018-02-22T10:02:18.578Z,16
2018-02-22T10:03:21.187Z,15.9
2018-02-22T10:04:23.656Z,15.9
2018-02-22T10:05:26.769Z,16
2018-02-22T10:06:29.662Z,16
2018-02-22T10:07:32.316Z,15.9
2018-02-22T10:08:34.959Z,15.9
2018-02-22T10:09:37.630Z,16.1
2018-02-22T10:10:40.478Z,16
2018-02-22T10:11:43.076Z,16
2018-02-22T10:12:45.613Z,16
2018-02-22T10:13:48.284Z,16
2018-02-22T10:14:51.039Z,15.9
2018-02-22T10:15:53.617Z,15.8
2018-02-22T10:16:56.205Z,15.6
2018-02-22T10:17:58.687Z,15.6
2018-02-22T10:19:01.323Z,15.6
2018-02-22T10:20:03.979Z,15.6
2018-02-22T10:21:07.253Z,15.5
2018-02-22T10:22:10.384Z,15.6
2018-02-22T10:23:13.122Z,15.4
2018-02-22T10:24:15.970Z,15.6
2018-02-22T10:25:18.692Z,15.6
2018-02-22T10:26:21.385Z,15.4
2018-02-22T10:27:24.030Z,15.5
2018-02-22T10:28:26.552Z,15.4
2018-02-22T10:29:29.106Z,15.6
2018-02-22T10:30:31.770Z,15.5
2018-02-22T10:31:34.406Z,15.3
2018-02-22T10:32:36.938Z,15.4
2018-02-22T10:33:39.603Z,15.5
2018-02-22T10:34:42.253Z,15.4
2018-02-22T10:35:44.880Z,15.4
2018-02-22T10:36:47.374Z,15.3
2018-02-22T10:37:50.066Z,15.3
2018-02-22T10:38:52.676Z,15.3
2018-02-22T10:39:55.328Z,15.4
2018-02-22T10:40:58.109Z,15.6
2018-02-22T10:42:00.744Z,15.4
2018-02-22T10:43:03.373Z,15.3
2018-02-22T10:44:05.919Z,15.6
2018-02-22T10:45:08.496Z,15.8
2018-02-22T10:46:11.123Z,15.8
2018-02-22T10:47:13.713Z,15.6
2018-02-22T10:48:16.333Z,15.6
2018-02-22T10:49:18.907Z,15.6
2018-02-22T10:50:21.512Z,15.3
2018-02-22T10:51:24.068Z,15.1
2018-02-22T10:52:26.562Z,15.3
2018-02-22T10:53:29.078Z,15.3
2018-02-22T10:54:31.737Z,15.2
2018-02-22T10:55:34.365Z,15.1
2018-02-22T10:56:37.047Z,15
2018-02-22T10:57:39.620Z,15
2018-02-22T10:58:43.209Z,15.1
2018-02-22T10:59:45.750Z,14.9
2018-02-22T11:00:48.379Z,14.9
2018-02-22T11:01:50.908Z,14.8
2018-02-22T11:02:53.489Z,15
2018-02-22T11:03:56.140Z,15
2018-02-22T11:04:58.730Z,14.8
2018-02-22T11:06:02.085Z,14.7
2018-02-22T11:07:04.970Z,14.5
2018-02-22T11:08:08.262Z,14.5
2018-02-22T11:09:11.147Z,14.8
2018-02-22T11:10:13.628Z,14.7
2018-02-22T11:11:16.216Z,15
2018-02-22T11:12:18.719Z,15.1
2018-02-22T11:13:21.234Z,15.3
2018-02-22T11:14:23.777Z,15.3
2018-02-22T11:15:26.364Z,15.3
2018-02-22T11:16:28.926Z,15.4
2018-02-22T11:17:31.635Z,15.5
2018-02-22T11:18:34.190Z,15.6
2018-02-22T11:19:36.684Z,15.8
2018-02-22T11:20:39.173Z,15.8
2018-02-22T11:21:41.885Z,15.8
2018-02-22T11:22:44.548Z,16
2018-02-22T11:23:47.205Z,16.1
2018-02-22T11:24:50.017Z,16.3
2018-02-22T11:25:52.760Z,16.4
2018-02-22T11:26:55.373Z,16.2
2018-02-22T11:27:58.037Z,16.3
2018-02-22T11:29:00.607Z,16.3
2018-02-22T11:30:03.641Z,16.5
2018-02-22T11:31:06.305Z,16.7
2018-02-22T11:32:08.923Z,16.6
2018-02-22T11:33:11.535Z,16.7
2018-02-22T11:34:14.008Z,16.5
2018-02-22T11:35:16.541Z,16.7
2018-02-22T11:36:19.097Z,16.8
2018-02-22T11:37:21.688Z,16.8
2018-02-22T11:38:24.988Z,16.7
2018-02-22T11:39:27.586Z,16.8
2018-02-22T11:40:30.335Z,16.6
2018-02-22T11:41:32.771Z,16.4
2018-02-22T11:42:35.242Z,16.5
2018-02-22T11:43:37.942Z,16.8
2018-02-22T11:44:40.853Z,16.8
2018-02-22T11:45:43.629Z,16.9
2018-02-22T11:46:46.273Z,16.9
2018-02-22T11:47:48.956Z,16.9
2018-02-22T11:48:51.562Z,16.5
2018-02-22T11:49:54.209Z,16.5
2018-02-22T11:50:56.716Z,16.6
2018-02-22T11:51:59.342Z,16.4
2018-02-22T11:53:02.050Z,16.4
2018-02-22T11:54:04.738Z,16.3
2018-02-22T11:55:07.443Z,16.4
2018-02-22T11:56:10.311Z,16.2
2018-02-22T11:57:12.926Z,16.1
2018-02-22T11:58:16.841Z,15.9
2018-02-22T11:59:19.384Z,15.9
2018-02-22T12:00:22.112Z,15.9
2018-02-22T12:01:24.589Z,15.9
2018-02-22T12:02:27.114Z,15.8
2018-02-22T12:03:29.780Z,15.6
2018-02-22T12:04:32.470Z,15.6
2018-02-22T12:05:34.982Z,15.3
2018-02-22T12:06:37.551Z,15.6
2018-02-22T12:07:40.520Z,15.7
2018-02-22T12:08:43.166Z,15.7
2018-02-22T12:09:45.692Z,15.6
2018-02-22T12:10:48.188Z,15.6
2018-02-22T12:11:51.129Z,15.5
2018-02-22T12:12:53.679Z,15.5
2018-02-22T12:15:04.016Z,15.6
2018-02-22T12:16:06.677Z,15.4
2018-02-22T12:18:17.387Z,15.5
2018-02-22T12:19:20.120Z,15.4
2018-02-22T12:20:22.821Z,15.3
2018-02-22T12:21:25.443Z,15.1
2018-02-22T12:22:27.948Z,14.9
2018-02-22T12:23:30.653Z,15
2018-02-22T12:24:33.097Z,14.8
2018-02-22T12:25:35.668Z,14.9
2018-02-22T12:26:38.385Z,14.9
2018-02-22T12:27:41.075Z,15.1
2018-02-22T12:28:43.713Z,15
2018-02-22T12:29:46.377Z,14.9
2018-02-22T12:30:49.088Z,14.8
2018-02-22T12:31:51.663Z,14.8
2018-02-22T12:32:54.273Z,14.7
2018-02-22T12:33:56.774Z,14.9
2018-02-22T12:34:59.338Z,14.8
2018-02-22T12:36:01.970Z,14.9
2018-02-22T12:37:04.466Z,14.9
2018-02-22T12:38:06.984Z,15
2018-02-22T12:39:09.550Z,15
2018-02-22T12:40:12.329Z,14.9
2018-02-22T12:41:14.903Z,14.9
2018-02-22T12:42:17.426Z,14.7
2018-02-22T12:43:20.140Z,14.8
2018-02-22T12:44:22.722Z,14.8
2018-02-22T12:45:25.228Z,15.1
2018-02-22T12:46:27.946Z,15
2018-02-22T12:47:30.471Z,14.9
2018-02-22T12:48:32.996Z,14.9
2018-02-22T12:49:35.612Z,14.9
2018-02-22T12:50:38.288Z,15
2018-02-22T12:51:40.916Z,14.9
2018-02-22T12:52:44.233Z,14.8
2018-02-22T12:53:47.105Z,14.8
2018-02-22T12:54:49.913Z,14.9
2018-02-22T12:55:52.608Z,14.9
2018-02-22T12:56:55.202Z,14.9
2018-02-22T12:57:57.906Z,14.9
2018-02-22T12:59:06.391Z,15
2018-02-22T13:00:09.028Z,15
2018-02-22T13:01:11.786Z,15
2018-02-22T13:02:14.384Z,14.8
2018-02-22T13:03:16.881Z,15
2018-02-22T13:04:19.700Z,14.9
2018-02-22T13:05:22.458Z,14.8
2018-02-22T13:06:25.142Z,15
2018-02-22T13:07:27.657Z,15
2018-02-22T13:08:30.140Z,14.9
2018-02-22T13:09:32.972Z,14.9
2018-02-22T13:10:35.530Z,14.9
2018-02-22T13:11:38.267Z,14.9
2018-02-22T13:12:47.631Z,14.8
2018-02-22T13:13:50.135Z,15
2018-02-22T13:14:52.761Z,14.7
2018-02-22T13:15:55.536Z,14.8
2018-02-22T13:16:58.101Z,14.9
2018-02-22T13:18:00.734Z,14.7
2018-02-22T13:19:03.341Z,14.8
2018-02-22T13:20:05.974Z,14.7
2018-02-22T13:21:08.532Z,14.7
2018-02-22T13:22:11.212Z,14.8
2018-02-22T13:23:13.768Z,14.7
2018-02-22T13:24:16.398Z,14.8
2018-02-22T13:25:18.953Z,14.7
2018-02-22T13:26:21.583Z,14.6
2018-02-22T13:27:24.139Z,14.8
2018-02-22T13:28:26.794Z,14.6
2018-02-22T13:29:29.530Z,14.6
2018-02-22T13:30:32.229Z,14.8
2018-02-22T13:31:34.788Z,14.8
2018-02-22T13:32:38.003Z,14.8
2018-02-22T13:33:40.613Z,14.6
2018-02-22T13:34:43.200Z,14.7
2018-02-22T13:35:45.764Z,14.7
2018-02-22T13:36:48.907Z,14.6
2018-02-22T13:37:51.625Z,14.4
2018-02-22T13:38:54.122Z,14.4
2018-02-22T13:39:56.614Z,14.5
2018-02-22T13:40:59.198Z,14.5
2018-02-22T13:42:01.791Z,14.5
2018-02-22T13:43:04.445Z,14.5
2018-02-22T13:44:07.003Z,14.3
2018-02-22T13:45:09.573Z,14.5
2018-02-22T13:46:12.433Z,14.4
2018-02-22T13:47:14.998Z,14.5
2018-02-22T13:48:18.245Z,14.5
2018-02-22T13:49:20.960Z,14.6
2018-02-22T13:50:23.533Z,14.4
2018-02-22T13:51:26.322Z,14.7
2018-02-22T13:52:30.121Z,14.6
2018-02-22T13:53:40.664Z,14.5
2018-02-22T13:54:45.495Z,14.4
2018-02-22T13:55:52.171Z,14.5
2018-02-22T13:56:56.318Z,14.5
2018-02-22T13:58:00.883Z,14.4
2018-02-22T13:59:03.567Z,14.5
2018-02-22T14:00:06.190Z,14.4
2018-02-22T14:01:08.833Z,14.4
2018-02-22T14:02:11.871Z,14.2
2018-02-22T14:03:14.629Z,14.2
2018-02-22T14:04:17.171Z,14.3
2018-02-22T14:05:21.821Z,14.5
2018-02-22T14:07:35.372Z,14.6
2018-02-22T14:08:37.972Z,14.6
2018-02-22T14:09:40.664Z,14.4
2018-02-22T14:10:43.232Z,14.4
2018-02-22T14:11:45.838Z,14.3
2018-02-22T14:12:48.345Z,14.2
2018-02-22T14:13:51.019Z,14.4
2018-02-22T14:14:53.708Z,14.1
2018-02-22T14:15:56.151Z,14.4
2018-02-22T14:16:58.709Z,14.4
2018-02-22T14:18:01.508Z,14.3